createdAt,value
2023-03-23T15:59:05.737Z,1.47
2023-03-23T16:01:53.469Z,1.80
2023-03-23T16:04:44.131Z,1.10
2023-03-23T16:07:31.164Z,2.08
2023-03-23T16:10:21.320Z,1.92
2023-03-23T16:13:11.829Z,2.05
2023-03-23T16:15:59.137Z,2.50
2023-03-23T16:18:46.798Z,2.12
2023-03-23T16:21:34.276Z,1.07
2023-03-23T16:24:21.762Z,1.42
2023-03-23T16:27:11.277Z,1.00
2023-03-23T16:30:04.243Z,4.20
2023-03-23T16:32:49.873Z,2.17
2023-03-23T16:35:39.066Z,7.58
2023-03-23T16:38:27.112Z,3.33
2023-03-23T16:41:14.164Z,3.25
2023-03-23T16:44:01.878Z,1.47
2023-03-23T16:46:49.279Z,2.67
2023-03-23T16:49:36.971Z,1.27
2023-03-23T16:52:24.525Z,1.77
2023-03-23T16:55:13.184Z,2.35
2023-03-23T16:58:15.456Z,2.17
2023-03-23T17:00:51.755Z,1.60
2023-03-23T17:03:41.855Z,3.27
2023-03-23T17:06:28.867Z,1.77
2023-03-23T17:09:17.680Z,2.50
2023-03-23T17:12:05.101Z,3.58
2023-03-23T17:14:52.341Z,2.42
2023-03-23T17:17:40.400Z,2.20
2023-03-23T17:20:27.759Z,3.50
2023-03-23T17:23:14.951Z,3.30
2023-03-23T17:26:02.229Z,3.62
2023-03-23T17:28:49.692Z,2.45
2023-03-23T17:31:37.777Z,4.90
2023-03-23T17:34:25.197Z,3.47
2023-03-23T17:37:13.030Z,3.95
2023-03-23T17:40:01.209Z,3.47
2023-03-23T17:42:48.437Z,5.70
2023-03-23T17:45:37.265Z,3.58
2023-03-23T17:48:24.557Z,4.70
2023-03-23T17:51:12.198Z,2.30
2023-03-23T17:53:59.475Z,3.33
2023-03-23T17:56:46.858Z,2.87
2023-03-23T17:59:34.568Z,3.80
2023-03-23T18:02:22.227Z,3.02
2023-03-23T18:05:10.806Z,3.33
2023-03-23T18:07:58.230Z,2.85
2023-03-23T18:10:46.773Z,2.17
2023-03-23T18:13:36.263Z,3.62
2023-03-23T18:16:24.153Z,2.50
2023-03-23T18:19:11.921Z,3.10
2023-03-23T18:21:59.527Z,3.95
2023-03-23T18:24:47.407Z,4.05
2023-03-23T18:27:35.846Z,3.25
2023-03-23T18:30:23.461Z,3.62
2023-03-23T18:33:11.061Z,2.00
2023-03-23T18:36:01.153Z,3.00
2023-03-23T18:38:49.907Z,2.85
2023-03-23T18:41:37.515Z,2.80
2023-03-23T18:44:25.417Z,4.72
2023-03-23T18:47:13.081Z,4.30
2023-03-23T18:50:01.508Z,3.35
2023-03-23T18:52:48.436Z,4.10
2023-03-23T18:55:36.195Z,2.70
2023-03-23T18:58:23.812Z,4.33
2023-03-23T19:01:14.139Z,4.80
2023-03-23T19:04:02.489Z,3.33
2023-03-23T19:06:51.705Z,3.60
2023-03-23T19:09:40.948Z,4.62
2023-03-23T19:12:28.242Z,3.37
2023-03-23T19:15:16.715Z,3.85
2023-03-23T19:18:04.052Z,2.52
2023-03-23T19:23:40.181Z,3.37
2023-03-23T19:26:36.608Z,4.35
2023-03-23T19:32:11.600Z,3.40
2023-03-23T19:34:59.209Z,4.65
2023-03-23T19:37:47.083Z,3.50
2023-03-23T19:40:40.283Z,6.40
2023-03-23T19:43:27.569Z,3.87
2023-03-23T19:46:15.826Z,3.25
2023-03-23T19:49:04.092Z,2.98
2023-03-23T19:52:07.264Z,2.72
2023-03-23T19:54:43.054Z,3.50
2023-03-23T19:57:30.628Z,5.70
2023-03-23T20:00:18.416Z,5.00
2023-03-23T20:03:06.236Z,4.53
2023-03-23T20:05:56.954Z,4.83
2023-03-23T20:08:47.501Z,5.22
2023-03-23T20:11:38.206Z,7.17
2023-03-23T20:14:26.102Z,4.55
2023-03-23T20:17:14.771Z,4.60
2023-03-23T20:20:02.250Z,3.87
2023-03-23T20:22:51.256Z,6.50
2023-03-23T20:25:38.620Z,6.70
2023-03-23T20:28:26.200Z,5.12
2023-03-23T20:31:23.369Z,5.42
2023-03-23T20:34:12.805Z,6.00
2023-03-23T20:37:02.515Z,3.87
2023-03-23T20:39:49.608Z,4.15
2023-03-23T20:42:37.116Z,5.53
2023-03-23T20:45:24.657Z,4.78
2023-03-23T20:48:11.888Z,9.63
2023-03-23T20:51:00.621Z,9.50
2023-03-23T20:53:48.585Z,6.87
2023-03-23T20:56:36.498Z,3.62
2023-03-23T20:59:24.341Z,4.72
2023-03-23T21:02:17.110Z,4.08
2023-03-23T21:05:05.123Z,3.67
2023-03-23T21:07:52.783Z,3.30
2023-03-23T21:10:40.949Z,4.17
2023-03-23T21:13:29.550Z,4.75
2023-03-23T21:16:18.774Z,3.72
2023-03-23T21:19:07.381Z,3.50
2023-03-23T21:21:57.136Z,2.33
2023-03-23T21:24:46.512Z,3.87
2023-03-23T21:27:35.556Z,2.62
2023-03-23T21:30:23.460Z,2.90
2023-03-23T21:33:11.174Z,4.15
2023-03-23T21:36:00.249Z,2.67
2023-03-23T21:38:49.885Z,4.33
2023-03-23T21:41:42.150Z,6.47
2023-03-23T21:44:26.839Z,3.72
2023-03-23T21:47:14.135Z,3.02
2023-03-23T21:50:04.510Z,3.72
2023-03-23T21:52:54.036Z,3.02
2023-03-23T21:55:43.952Z,3.90
2023-03-23T21:58:31.502Z,4.35
2023-03-23T22:01:19.367Z,6.12
2023-03-23T22:04:07.590Z,4.95
2023-03-23T22:06:54.954Z,4.78
2023-03-23T22:09:44.181Z,4.00
2023-03-23T22:12:31.715Z,4.05
2023-03-23T22:15:19.278Z,5.00
2023-03-23T22:18:07.034Z,5.53
2023-03-23T22:20:54.508Z,6.20
2023-03-23T22:23:42.832Z,4.75
2023-03-23T22:26:31.287Z,7.22
2023-03-23T22:29:18.896Z,6.92
2023-03-23T22:32:06.166Z,5.05
2023-03-23T22:34:53.567Z,7.03
2023-03-23T22:37:41.146Z,5.00
2023-03-23T22:40:28.986Z,4.80
2023-03-23T22:43:16.965Z,6.15
2023-03-23T22:46:05.800Z,5.17
2023-03-23T22:48:53.361Z,6.30
2023-03-23T22:51:41.718Z,6.62
2023-03-23T22:54:29.232Z,5.45
2023-03-23T22:57:17.163Z,6.70
2023-03-23T23:00:07.348Z,7.15
2023-03-23T23:02:54.917Z,6.05
2023-03-23T23:05:48.336Z,7.53
2023-03-23T23:08:35.549Z,8.50
2023-03-23T23:11:25.552Z,7.87
2023-03-23T23:14:12.690Z,10.32
2023-03-23T23:17:00.430Z,5.85
2023-03-23T23:19:48.115Z,8.58
2023-03-23T23:22:35.785Z,7.30
2023-03-23T23:25:23.270Z,8.85
2023-03-23T23:28:10.796Z,6.85
2023-03-23T23:30:58.281Z,9.28
2023-03-23T23:33:45.493Z,7.35
2023-03-23T23:36:33.702Z,5.90
2023-03-23T23:39:21.232Z,6.95
2023-03-23T23:42:08.789Z,7.92
2023-03-23T23:44:56.186Z,8.20
2023-03-23T23:47:44.271Z,9.53
2023-03-23T23:50:31.709Z,7.70
2023-03-23T23:53:20.886Z,10.43
2023-03-23T23:56:08.851Z,8.10
2023-03-23T23:58:56.473Z,9.83
